createdAt,value
2019-02-17T00:06:54.958Z,21.1
2019-02-17T00:16:54.165Z,21.2
2019-02-17T00:26:53.375Z,21.3
2019-02-17T00:36:52.579Z,21.3
2019-02-17T00:46:51.832Z,21.3
2019-02-17T00:56:50.991Z,21.3
2019-02-17T01:06:50.202Z,21
2019-02-17T01:16:49.413Z,21.3
2019-02-17T01:26:48.625Z,20.3
2019-02-17T01:36:47.843Z,20.3
2019-02-17T01:46:47.055Z,20.4
2019-02-17T01:56:46.261Z,20.4
2019-02-17T02:06:45.471Z,20.4
2019-02-17T02:16:44.680Z,20.5
2019-02-17T02:26:43.889Z,20.5
2019-02-17T02:36:43.098Z,20.6
2019-02-17T02:46:42.303Z,20.6
2019-02-17T02:56:41.510Z,20.6
2019-02-17T03:06:40.716Z,20.7
2019-02-17T03:16:39.923Z,20.7
2019-02-17T03:26:39.129Z,20.7
2019-02-17T03:36:38.336Z,20.8
2019-02-17T03:46:37.541Z,20.8
2019-02-17T03:56:36.746Z,20.8
2019-02-17T04:06:35.954Z,20.8
2019-02-17T04:16:35.159Z,20.8
2019-02-17T04:26:34.363Z,20.8
2019-02-17T04:36:33.580Z,20.9
2019-02-17T04:46:32.774Z,20.9
2019-02-17T04:56:31.980Z,20.9
2019-02-17T05:06:31.183Z,20.9
2019-02-17T05:16:30.387Z,20.9
2019-02-17T05:26:29.619Z,20.9
2019-02-17T05:36:28.795Z,20.9
2019-02-17T05:46:28.001Z,20.9
2019-02-17T05:56:27.203Z,20.9
2019-02-17T06:06:26.409Z,21
2019-02-17T06:14:33.836Z,21
2019-02-17T06:24:33.037Z,21
2019-02-17T06:34:32.240Z,21.1
2019-02-17T06:44:31.447Z,20.9
2019-02-17T06:54:30.649Z,17.8
2019-02-17T07:04:29.853Z,18.8
2019-02-17T07:14:29.072Z,19.4
2019-02-17T07:24:28.361Z,19.9
2019-02-17T07:34:27.656Z,20.7
2019-02-17T07:44:26.947Z,21.5
2019-02-17T07:54:26.243Z,22.4
2019-02-17T08:04:25.533Z,23.3
2019-02-17T08:14:24.783Z,23.9
2019-02-17T08:24:23.990Z,24.8
2019-02-17T08:34:23.202Z,25.5
2019-02-17T08:44:22.406Z,25.9
2019-02-17T08:54:21.618Z,26.3
2019-02-17T09:04:20.831Z,26.9
2019-02-17T09:14:20.043Z,27.5
2019-02-17T09:24:19.255Z,28.1
2019-02-17T09:34:18.463Z,28.9
2019-02-17T09:44:17.673Z,29.6
2019-02-17T09:54:16.884Z,30.3
2019-02-17T10:04:16.144Z,31
2019-02-17T10:14:15.302Z,31.8
2019-02-17T10:24:14.513Z,32.4
2019-02-17T10:34:13.727Z,33.1
2019-02-17T10:44:12.931Z,33.8
2019-02-17T10:54:12.143Z,34.4
2019-02-17T11:04:11.363Z,34.9
2019-02-17T11:14:10.572Z,35.5
2019-02-17T11:24:09.783Z,36.2
2019-02-17T11:34:08.992Z,36.9
2019-02-17T11:44:08.204Z,37.6
2019-02-17T11:54:07.418Z,38.3
2019-02-17T12:04:06.677Z,38.9
2019-02-17T12:14:05.836Z,39.5
2019-02-17T12:24:05.103Z,40.3
2019-02-17T12:34:04.256Z,40.9
2019-02-17T12:44:03.466Z,41.6
2019-02-17T12:54:02.669Z,42.3
2019-02-17T13:04:01.875Z,43
2019-02-17T13:14:01.081Z,43.6
2019-02-17T13:24:00.288Z,44.3
2019-02-17T13:33:59.493Z,44.9
2019-02-17T13:43:58.697Z,45.5
2019-02-17T13:53:57.902Z,46.1
2019-02-17T14:00:12.555Z,46.5
2019-02-17T14:10:11.714Z,46.9
2019-02-17T14:20:10.978Z,47.3
2019-02-17T14:30:10.140Z,47.8
2019-02-17T14:40:09.394Z,48.2
2019-02-17T14:50:08.549Z,48.6
2019-02-17T15:00:07.857Z,48.9
2019-02-17T15:10:08.764Z,49.3
2019-02-17T15:20:06.336Z,49.4
2019-02-17T15:30:05.641Z,49.6
2019-02-17T15:40:04.934Z,49.4
2019-02-17T15:50:04.232Z,49
2019-02-17T16:00:03.491Z,48.8
2019-02-17T16:05:16.395Z,47.9
2019-02-17T16:15:15.637Z,37.2
2019-02-17T16:25:14.815Z,27.4
2019-02-17T16:35:14.025Z,27.7
2019-02-17T16:45:13.233Z,28.4
2019-02-17T16:55:12.521Z,28.9
2019-02-17T17:05:11.659Z,29.3
2019-02-17T17:15:10.958Z,29.6
2019-02-17T17:25:10.253Z,29.9
2019-02-17T17:35:09.545Z,27.9
2019-02-17T17:45:08.838Z,28.1
2019-02-17T17:55:08.169Z,27.8
2019-02-17T18:05:09.398Z,27.9
2019-02-17T18:15:06.621Z,28.1
2019-02-17T18:25:05.830Z,28.1
2019-02-17T18:35:05.093Z,28.3
2019-02-17T18:43:56.116Z,28.3
2019-02-17T18:53:55.328Z,27.6
2019-02-17T19:03:54.542Z,27.7
2019-02-17T19:13:53.761Z,25.5
2019-02-17T19:23:52.970Z,23.6
2019-02-17T19:33:52.180Z,23.9
2019-02-17T19:43:51.408Z,23.1
2019-02-17T19:53:50.727Z,22.9
2019-02-17T20:03:49.991Z,23.3
2019-02-17T20:13:49.286Z,23.5
2019-02-17T20:23:48.575Z,23.5
2019-02-17T20:33:47.867Z,23.7
2019-02-17T20:43:47.119Z,23.8
2019-02-17T20:53:46.375Z,23.9
2019-02-17T21:03:45.585Z,24.1
2019-02-17T21:13:44.770Z,24.2
2019-02-17T21:23:43.949Z,24.3
2019-02-17T21:33:43.207Z,24.3
2019-02-17T21:43:42.367Z,24.4
2019-02-17T21:53:41.624Z,24.5
2019-02-17T22:03:40.778Z,24.6
2019-02-17T22:13:39.988Z,24.6
2019-02-17T22:23:39.954Z,24.7
2019-02-17T22:33:38.399Z,24.8
2019-02-17T22:43:37.605Z,24.9
2019-02-17T22:53:43.257Z,24.9
2019-02-17T23:03:36.106Z,24.9
2019-02-17T23:13:35.226Z,25
2019-02-17T23:23:34.431Z,25.1
2019-02-17T23:33:33.643Z,25.1
2019-02-17T23:43:32.842Z,25.1
2019-02-17T23:53:32.047Z,25.2
